createdAt,value
2023-04-28T00:03:13.191Z,8.80
2023-04-28T00:08:16.237Z,8.81
2023-04-28T00:13:19.092Z,8.81
2023-04-28T00:18:23.576Z,8.76
2023-04-28T00:23:26.389Z,8.81
2023-04-28T00:33:36.371Z,8.72
2023-04-28T00:38:39.480Z,8.76
2023-04-28T00:43:46.510Z,8.69
2023-04-28T00:48:51.041Z,8.76
2023-04-28T00:53:54.116Z,8.79
2023-04-28T00:58:57.224Z,8.78
2023-04-28T01:04:02.129Z,8.71
2023-04-28T01:09:06.352Z,8.72
2023-04-28T01:14:09.530Z,8.84
2023-04-28T01:19:22.420Z,8.83
2023-04-28T01:24:28.063Z,8.80
2023-04-28T01:29:34.260Z,8.76
2023-04-28T01:34:37.063Z,8.83
2023-04-28T01:39:43.455Z,8.73
2023-04-28T01:44:46.275Z,8.71
2023-04-28T01:49:50.081Z,8.72
2023-04-28T01:54:54.317Z,8.66
2023-04-28T01:59:59.552Z,8.73
2023-04-28T02:05:04.732Z,8.75
2023-04-28T02:10:09.864Z,8.70
2023-04-28T02:15:13.228Z,8.69
2023-04-28T02:20:16.484Z,8.65
2023-04-28T02:25:21.044Z,8.72
2023-04-28T02:30:24.024Z,8.75
2023-04-28T02:35:26.876Z,8.72
2023-04-28T02:40:31.078Z,8.71
2023-04-28T02:45:33.962Z,8.75
2023-04-28T02:50:36.823Z,8.76
2023-04-28T02:55:41.094Z,8.72
2023-04-28T03:00:43.978Z,8.71
2023-04-28T03:05:46.874Z,8.72
2023-04-28T03:10:51.076Z,8.63
2023-04-28T03:15:54.009Z,8.67
2023-04-28T03:20:56.971Z,8.68
2023-04-28T03:26:04.154Z,8.73
2023-04-28T03:31:07.275Z,8.74
2023-04-28T03:36:10.586Z,8.74
2023-04-28T03:41:14.813Z,8.74
2023-04-28T03:46:43.401Z,8.74
2023-04-28T03:51:46.683Z,8.71
2023-04-28T03:56:52.182Z,8.70
2023-04-28T04:01:55.132Z,8.73
2023-04-28T04:06:58.066Z,8.72
2023-04-28T04:12:02.541Z,8.70
2023-04-28T04:17:05.307Z,8.72
2023-04-28T04:22:08.250Z,8.71
2023-04-28T04:27:12.698Z,8.59
2023-04-28T04:32:17.443Z,8.64
2023-04-28T04:37:20.383Z,8.70
2023-04-28T04:42:37.584Z,8.75
2023-04-28T04:47:54.807Z,8.71
2023-04-28T04:52:58.289Z,8.72
2023-04-28T04:58:03.274Z,8.75
2023-04-28T05:03:25.323Z,8.74
2023-04-28T05:08:28.778Z,8.90
2023-04-28T05:13:34.817Z,8.87
2023-04-28T05:18:39.415Z,9.03
2023-04-28T05:23:42.359Z,9.03
2023-04-28T05:28:47.021Z,9.04
2023-04-28T05:33:50.770Z,9.18
2023-04-28T05:38:53.811Z,9.34
2023-04-28T05:43:58.267Z,9.24
2023-04-28T05:49:01.179Z,9.38
2023-04-28T05:54:09.320Z,9.33
2023-04-28T05:59:19.522Z,9.42
2023-04-28T06:04:22.849Z,9.45
2023-04-28T06:09:26.544Z,9.58
2023-04-28T06:14:30.903Z,9.79
2023-04-28T06:19:33.653Z,9.91
2023-04-28T06:24:36.612Z,9.69
2023-04-28T06:29:43.676Z,9.80
2023-04-28T06:34:46.400Z,10.09
2023-04-28T06:39:49.203Z,10.26
2023-04-28T06:44:53.747Z,10.21
2023-04-28T06:49:56.709Z,10.25
2023-04-28T06:54:59.531Z,10.27
2023-04-28T07:00:04.519Z,10.45
2023-04-28T07:05:08.782Z,10.42
2023-04-28T07:10:11.729Z,10.24
2023-04-28T07:15:16.077Z,10.03
2023-04-28T07:20:19.267Z,10.29
2023-04-28T07:25:22.105Z,10.42
2023-04-28T07:30:28.406Z,10.49
2023-04-28T07:35:31.444Z,10.62
2023-04-28T07:40:34.304Z,10.70
2023-04-28T07:45:39.989Z,10.96
2023-04-28T07:50:43.197Z,11.13
2023-04-28T07:55:46.226Z,11.40
2023-04-28T08:00:50.624Z,11.08
2023-04-28T08:05:53.632Z,11.48
2023-04-28T08:10:57.186Z,11.68
2023-04-28T08:16:01.546Z,11.52
2023-04-28T08:21:04.434Z,10.94
2023-04-28T08:26:07.311Z,10.60
2023-04-28T08:31:11.492Z,11.07
2023-04-28T08:36:14.935Z,11.51
2023-04-28T08:41:19.297Z,11.90
2023-04-28T08:46:26.631Z,11.95
2023-04-28T08:51:34.882Z,12.25
2023-04-28T08:56:37.672Z,12.15
2023-04-28T09:01:42.049Z,12.29
2023-04-28T09:06:45.482Z,12.21
2023-04-28T09:11:56.419Z,12.54
2023-04-28T09:17:00.505Z,12.66
2023-04-28T09:22:17.639Z,12.73
2023-04-28T09:27:29.066Z,12.57
2023-04-28T09:32:33.251Z,12.51
2023-04-28T09:37:37.664Z,12.40
2023-04-28T09:42:41.777Z,12.45
2023-04-28T09:47:48.245Z,12.60
2023-04-28T09:52:59.271Z,12.65
2023-04-28T09:58:07.868Z,12.29
2023-04-28T10:03:13.521Z,12.07
2023-04-28T10:08:17.815Z,12.17
2023-04-28T10:13:22.093Z,12.47
2023-04-28T10:18:26.816Z,12.67
2023-04-28T10:23:48.751Z,12.41
2023-04-28T10:28:52.882Z,12.28
2023-04-28T10:33:57.367Z,12.37
2023-04-28T10:39:10.958Z,12.79
2023-04-28T10:44:43.868Z,13.32
2023-04-28T10:50:04.859Z,13.63
2023-04-28T10:55:36.505Z,13.80
2023-04-28T11:00:41.035Z,14.05
2023-04-28T11:06:19.353Z,13.92
2023-04-28T11:11:25.943Z,13.61
2023-04-28T11:16:28.818Z,13.63
2023-04-28T11:21:33.104Z,13.78
2023-04-28T11:26:38.932Z,14.42
2023-04-28T11:31:42.185Z,14.58
2023-04-28T11:36:45.465Z,14.73
2023-04-28T11:41:49.626Z,14.76
2023-04-28T11:46:56.107Z,15.32
2023-04-28T11:52:00.485Z,15.08
2023-04-28T11:57:05.696Z,15.22
2023-04-28T12:02:08.979Z,15.47
2023-04-28T12:07:13.592Z,15.31
2023-04-28T12:12:45.151Z,15.45
2023-04-28T12:17:52.636Z,15.44
2023-04-28T12:22:55.386Z,15.45
2023-04-28T12:28:03.093Z,15.58
2023-04-28T12:33:06.181Z,15.90
2023-04-28T12:38:13.932Z,16.25
2023-04-28T12:43:18.451Z,16.06
2023-04-28T12:48:21.430Z,16.24
2023-04-28T12:53:24.171Z,15.95
2023-04-28T12:58:28.825Z,15.50
2023-04-28T13:03:31.841Z,15.47
2023-04-28T13:08:35.264Z,15.63
2023-04-28T13:13:39.458Z,16.51
2023-04-28T13:18:42.273Z,17.16
2023-04-28T13:23:45.506Z,17.16
2023-04-28T13:28:49.895Z,16.82
2023-04-28T13:33:52.701Z,16.89
2023-04-28T13:38:55.481Z,16.70
2023-04-28T13:43:59.576Z,16.51
2023-04-28T13:49:02.363Z,16.52
2023-04-28T13:54:08.144Z,16.91
2023-04-28T13:59:12.330Z,16.75
2023-04-28T14:04:15.295Z,16.24
2023-04-28T14:09:18.301Z,15.88
2023-04-28T14:14:22.679Z,15.41
2023-04-28T14:19:27.003Z,15.12
2023-04-28T14:24:29.805Z,14.88
2023-04-28T14:29:33.883Z,14.99
2023-04-28T14:34:36.666Z,15.07
2023-04-28T14:39:39.938Z,15.24
2023-04-28T14:44:45.164Z,15.27
2023-04-28T14:49:48.590Z,15.08
2023-04-28T14:54:51.332Z,15.02
2023-04-28T14:59:55.987Z,14.99
2023-04-28T15:04:58.958Z,15.19
2023-04-28T15:10:02.020Z,15.14
2023-04-28T15:15:07.063Z,15.11
2023-04-28T15:20:10.083Z,14.74
2023-04-28T15:25:12.864Z,14.73
2023-04-28T15:30:17.049Z,14.66
2023-04-28T15:35:19.813Z,14.36
2023-04-28T15:40:22.565Z,14.16
2023-04-28T15:45:27.169Z,14.95
2023-04-28T15:50:30.202Z,15.18
2023-04-28T15:55:33.090Z,15.13
2023-04-28T16:00:37.660Z,15.50
2023-04-28T16:05:40.586Z,15.32
2023-04-28T16:10:44.027Z,15.40
2023-04-28T16:15:51.218Z,15.34
2023-04-28T16:20:54.043Z,15.15
2023-04-28T16:25:56.859Z,14.66
2023-04-28T16:31:01.128Z,14.77
2023-04-28T16:36:03.992Z,14.75
2023-04-28T16:41:06.837Z,14.87
2023-04-28T16:46:11.052Z,14.86
2023-04-28T16:51:13.837Z,14.78
2023-04-28T16:56:17.218Z,14.76
2023-04-28T17:01:21.693Z,14.74
2023-04-28T17:06:24.748Z,14.76
2023-04-28T17:11:27.658Z,14.80
2023-04-28T17:16:33.519Z,14.80
2023-04-28T17:21:36.365Z,14.50
2023-04-28T17:26:39.181Z,14.44
2023-04-28T17:31:43.370Z,14.50
2023-04-28T17:36:46.381Z,13.38
2023-04-28T17:41:49.177Z,12.58
2023-04-28T17:46:53.353Z,12.56
2023-04-28T17:51:56.312Z,12.90
2023-04-28T17:56:59.082Z,12.56
2023-04-28T18:02:03.253Z,12.89
2023-04-28T18:07:07.741Z,12.74
2023-04-28T18:12:10.632Z,12.87
2023-04-28T18:17:14.720Z,12.82
2023-04-28T18:22:17.870Z,12.71
2023-04-28T18:27:20.709Z,12.59
2023-04-28T18:32:24.945Z,12.43
2023-04-28T18:37:28.261Z,12.45
2023-04-28T18:42:32.702Z,12.63
2023-04-28T18:47:36.824Z,12.30
2023-04-28T18:52:40.197Z,12.62
2023-04-28T18:57:43.199Z,12.47
2023-04-28T19:02:47.461Z,12.49
2023-04-28T19:07:50.430Z,12.17
2023-04-28T19:12:53.188Z,12.47
2023-04-28T19:17:57.513Z,12.29
2023-04-28T19:23:01.622Z,12.32
2023-04-28T19:28:04.538Z,12.54
2023-04-28T19:33:08.793Z,12.34
2023-04-28T19:38:11.764Z,12.34
2023-04-28T19:43:15.858Z,12.79
2023-04-28T19:48:20.502Z,12.38
2023-04-28T19:53:23.509Z,12.50
2023-04-28T19:58:26.358Z,12.06
2023-04-28T20:03:31.141Z,12.19
2023-04-28T20:08:33.965Z,12.00
2023-04-28T20:13:36.755Z,12.10
2023-04-28T20:18:40.871Z,11.93
2023-04-28T20:23:43.685Z,12.22
2023-04-28T20:28:48.418Z,12.22
2023-04-28T20:33:52.534Z,12.37
2023-04-28T20:38:55.299Z,12.05
2023-04-28T20:43:58.190Z,11.83
2023-04-28T20:49:02.586Z,11.75
2023-04-28T20:54:05.409Z,11.88
2023-04-28T20:59:08.162Z,11.52
2023-04-28T21:04:12.527Z,11.71
2023-04-28T21:09:15.569Z,11.40
2023-04-28T21:14:18.357Z,11.37
2023-04-28T21:19:22.590Z,11.58
2023-04-28T21:24:25.382Z,11.45
2023-04-28T21:29:28.224Z,11.56
2023-04-28T21:34:32.489Z,11.66
2023-04-28T21:39:36.622Z,11.65
2023-04-28T21:44:39.508Z,11.18
2023-04-28T21:49:43.993Z,11.57
2023-04-28T21:54:46.827Z,11.61
2023-04-28T21:59:50.133Z,11.62
2023-04-28T22:04:55.135Z,11.61
2023-04-28T22:09:58.645Z,11.53
2023-04-28T22:15:01.447Z,11.59
2023-04-28T22:20:06.785Z,11.75
2023-04-28T22:25:10.194Z,11.67
2023-04-28T22:30:13.876Z,11.93
2023-04-28T22:35:18.069Z,11.52
2023-04-28T22:40:21.602Z,11.70
2023-04-28T22:45:24.377Z,11.48
2023-04-28T22:50:28.933Z,11.35
2023-04-28T22:55:31.843Z,11.31
2023-04-28T23:00:35.736Z,11.66
2023-04-28T23:05:40.307Z,11.56
2023-04-28T23:10:43.064Z,11.35
2023-04-28T23:15:46.724Z,11.42
2023-04-28T23:20:50.915Z,11.41
2023-04-28T23:25:53.731Z,11.47
2023-04-28T23:30:56.570Z,11.13
2023-04-28T23:36:00.698Z,11.88
2023-04-28T23:41:04.506Z,12.02
2023-04-28T23:46:07.797Z,11.74
2023-04-28T23:51:12.006Z,11.69
2023-04-28T23:56:14.918Z,11.62
